Latest Weather Observations for Mangrove Mountain

IDN60801

Issued at 3:32 am EST Wednesday 29 July 2015 (issued every 30 minutes, with the page automatically refreshed every 10 minutes)

About weather observations | Map of weather stations | Latest weather observations for NSW | Other Formats
Station Details ID: 061375 Name: MANGROVE MOUNTAIN AWS Lat: -33.29 Lon: 151.21 Height: 305.0 m
Data from the previous 72 hours. | See also: Recent months at Mangrove Mountain
Date/Time
EST
Temp
°C
App
Temp
°C
Dew
Point
Rel
Hum
%
Delta-T
°C
Wind Press
QNH
hPa
Press
MSL
hPa
Rain
since 9 am
mm
Dir
 
Spd
km/h
Gust
km/h
Spd
kts
Gust
kts
29/03:30am 3.2 0.9 2.6 96 0.2 NW 4 6 2 3 - - 0.0
29/03:00am 4.4 2.0 4.1 98 0.1 NW 6 11 3 6 - - 0.0
29/02:30am 4.4 2.0 4.3 99 0.0 NW 6 9 3 5 - - 0.0
29/02:00am 3.8 1.6 3.5 98 0.1 WNW 4 9 2 5 - - 0.0
29/01:30am 3.5 1.6 3.1 97 0.2 WNW 2 4 1 2 - - 0.0
29/01:00am 3.9 1.7 3.6 98 0.1 NW 4 4 2 2 - - 0.0
29/12:30am 3.7 1.9 3.4 98 0.1 SW 2 4 1 2 - - 0.0
29/12:00am 3.4 1.5 2.8 96 0.2 SE 2 2 1 1 - - 0.0
 
Date/Time
EST
Temp
°C
App
Temp
°C
Dew
Point
Rel
Hum
%
Delta-T
°C
Wind Press
QNH
hPa
Press
MSL
hPa
Rain
since 9 am
mm
Dir
 
Spd
km/h
Gust
km/h
Spd
kts
Gust
kts
28/11:30pm 3.5 1.9 2.6 94 0.4 CALM 0 0 0 0 - - 0.0
28/11:00pm 3.8 2.3 2.8 93 0.4 CALM 0 2 0 1 - - 0.0
28/10:30pm 4.0 2.4 2.4 89 0.7 CALM 0 0 0 0 - - 0.0
28/10:00pm 5.1 3.6 2.8 85 1.0 CALM 0 4 0 2 - - 0.0
28/09:30pm 6.4 4.2 3.2 80 1.4 SE 4 4 2 2 - - 0.0
28/09:00pm 6.9 4.9 4.4 84 1.1 SSE 4 6 2 3 - - 0.0
28/08:30pm 6.7 4.6 3.9 82 1.2 ESE 4 6 2 3 - - 0.0
28/08:00pm 7.7 5.7 4.5 80 1.4 SE 4 6 2 3 - - 0.0
28/07:30pm 8.3 6.5 5.2 81 1.4 SE 4 7 2 4 - - 0.0
28/07:00pm 6.8 4.8 4.6 86 1.0 ESE 4 4 2 2 - - 0.0
28/06:30pm 7.1 5.1 4.6 84 1.1 ESE 4 4 2 2 - - 0.0
28/06:00pm 7.0 4.9 4.1 82 1.3 ESE 4 6 2 3 - - 0.0
28/05:30pm 9.1 7.1 4.5 73 2.1 ESE 4 6 2 3 - - 0.0
28/05:00pm 10.9 8.9 4.4 64 3.0 SE 4 7 2 4 - - 0.0
28/04:30pm 12.5 10.7 3.5 54 4.1 SSW 2 6 1 3 - - 0.0
28/04:00pm 13.2 10.4 3.3 51 4.5 S 7 13 4 7 - - 0.0
28/03:30pm 13.5 10.6 2.4 47 5.0 SSE 7 13 4 7 - - 0.0
28/03:00pm 14.1 11.2 2.4 45 5.3 SW 7 17 4 9 - - 0.0
28/02:30pm 14.0 10.9 1.6 43 5.5 SW 7 19 4 10 - - 0.0
28/02:00pm 14.1 11.2 2.4 45 5.3 SW 7 15 4 8 - - 0.0
28/01:30pm 14.1 11.2 2.7 46 5.2 WSW 7 13 4 7 - - 0.0
28/01:00pm 14.3 11.8 3.7 49 4.9 SSW 6 11 3 6 - - 0.0
28/12:30pm 13.6 10.7 2.5 47 5.0 WSW 7 17 4 9 - - 0.0
28/12:00pm 13.1 10.2 2.4 48 4.8 SSW 7 11 4 6 - - 0.0
28/11:30am 12.3 9.0 2.5 51 4.3 W 9 15 5 8 - - 0.0
28/11:00am 11.7 8.8 2.5 53 4.1 W 7 15 4 8 - - 0.0
28/10:30am 11.1 8.3 3.2 58 3.5 WNW 7 13 4 7 - - 0.0
28/10:00am 9.2 6.3 2.8 64 2.8 WNW 7 11 4 6 - - 0.0
28/09:30am 9.0 6.0 2.3 63 2.9 WNW 7 13 4 7 - - 0.0
28/09:00am 7.8 4.8 2.1 67 2.4 WNW 7 9 4 5 - - 0.0
28/08:30am 6.4 3.4 2.3 75 1.7 NW 7 11 4 6 - - 0.0
28/08:00am 4.2 1.3 1.7 84 1.0 NW 6 9 3 5 - - 0.0
28/07:30am 1.9 -1.1 0.7 92 0.5 NW 6 9 3 5 - - 0.0
28/07:00am 0.7 -2.4 0.0 95 0.3 NW 6 9 3 5 - - 0.0
28/06:30am 0.6 -2.6 -0.3 94 0.3 NW 6 9 3 5 - - 0.0
28/06:00am 1.0 -1.8 -0.1 92 0.4 WNW 4 7 2 4 - - 0.0
28/05:30am 1.0 -1.8 -0.5 90 0.5 WNW 4 6 2 3 - - 0.0
28/05:00am 1.7 -1.4 0.1 89 0.6 WNW 6 7 3 4 - - 0.0
28/04:30am 2.0 -0.7 0.1 87 0.7 WNW 4 7 2 4 - - 0.0
28/04:00am 1.8 -1.3 0.2 89 0.6 WNW 6 11 3 6 - - 0.0
28/03:30am 2.0 -1.0 0.5 90 0.6 NW 6 7 3 4 - - 0.0
28/03:00am 1.4 -1.4 -0.1 90 0.6 WNW 4 6 2 3 - - 0.0
28/02:30am 1.6 -1.2 -0.3 87 0.7 NW 4 6 2 3 - - 0.0
28/02:00am 2.6 -0.6 0.5 86 0.8 WNW 7 9 4 5 - - 0.0
28/01:30am 3.2 0.2 1.1 86 0.8 NW 6 9 3 5 - - 0.0
28/01:00am 2.4 -0.6 0.6 88 0.7 WNW 6 7 3 4 - - 0.0
28/12:30am 2.9 -0.1 0.8 86 0.8 WNW 6 9 3 5 - - 0.0
28/12:00am 3.3 0.6 0.4 81 1.1 WNW 4 7 2 4 - - 0.0
 
Date/Time
EST
Temp
°C
App
Temp
°C
Dew
Point
Rel
Hum
%
Delta-T
°C
Wind Press
QNH
hPa
Press
MSL
hPa
Rain
since 9 am
mm
Dir
 
Spd
km/h
Gust
km/h
Spd
kts
Gust
kts
27/11:30pm 3.7 0.7 1.1 83 1.0 WNW 6 9 3 5 - - 0.0
27/11:00pm 2.5 -0.2 0.1 84 0.9 WNW 4 6 2 3 - - 0.0
27/10:30pm 3.1 0.4 0.2 81 1.1 WNW 4 6 2 3 - - 0.0
27/10:00pm 3.8 0.7 0.0 76 1.5 WNW 6 7 3 4 - - 0.0
27/09:30pm 5.2 2.5 0.4 71 1.9 WNW 4 7 2 4 - - 0.0
27/09:00pm 5.8 2.5 0.4 68 2.1 W 7 11 4 6 - - 0.0
27/08:30pm 6.3 2.7 0.6 67 2.3 W 9 15 5 8 - - 0.0
27/08:00pm 6.4 3.2 0.5 66 2.4 W 7 13 4 7 - - 0.0
27/07:30pm 7.0 3.8 0.7 64 2.5 WNW 7 13 4 7 - - 0.0
27/07:00pm 7.3 4.1 0.5 62 2.7 W 7 13 4 7 - - 0.0
27/06:30pm 7.9 4.7 0.6 60 3.0 W 7 13 4 7 - - 0.0
27/06:00pm 7.6 4.6 0.6 61 2.8 W 6 9 3 5 - - 0.0
27/05:30pm 7.6 4.5 0.1 59 3.0 W 6 7 3 4 - - 0.0
27/05:00pm 9.4 6.3 0.1 52 3.8 WSW 6 7 3 4 - - 0.0
27/04:30pm 11.2 7.9 0.0 46 4.6 WSW 7 13 4 7 - - 0.0
27/04:00pm 12.2 8.0 -1.0 40 5.4 WSW 11 20 6 11 - - 0.0
27/03:30pm 12.8 8.6 -0.8 39 5.6 WSW 11 19 6 10 - - 0.0
27/03:00pm 12.8 8.5 -1.5 37 5.8 WSW 11 17 6 9 - - 0.0
27/02:30pm 12.7 8.4 -2.0 36 5.9 WSW 11 19 6 10 - - 0.0
27/02:00pm 12.9 7.9 -1.1 38 5.8 W 15 26 8 14 - - 0.0
27/01:30pm 13.2 8.4 0.3 41 5.5 W 15 28 8 15 - - 0.0
27/01:00pm 12.6 7.2 -1.0 39 5.6 W 17 32 9 17 - - 0.0
27/12:30pm 12.7 7.9 0.5 43 5.2 W 15 35 8 19 - - 0.0
27/12:00pm 11.9 6.8 1.0 47 4.7 W 17 24 9 13 - - 0.0
27/11:30am 11.3 6.9 0.4 47 4.6 W 13 20 7 11 - - 0.0
27/11:00am 10.8 6.4 0.2 48 4.4 W 13 24 7 13 - - 0.0
27/10:30am 10.6 6.6 0.3 49 4.3 W 11 17 6 9 - - 0.0
27/10:00am 9.9 5.6 0.8 53 3.8 WNW 13 20 7 11 - - 0.0
27/09:30am 9.1 5.1 0.6 55 3.5 WNW 11 20 6 11 - - 0.0
27/09:00am 7.9 4.3 0.4 59 3.0 NW 9 17 5 9 - - 0.0
27/08:30am 6.9 2.9 0.6 64 2.5 NW 11 19 6 10 - - 0.0
27/08:00am 5.7 1.7 0.3 68 2.1 WNW 11 19 6 10 - - 0.0
27/07:30am 4.6 0.9 0.2 73 1.7 WNW 9 19 5 10 - - 0.0
27/07:00am 4.3 0.6 0.1 74 1.6 WNW 9 15 5 8 - - 0.0
27/06:30am 4.3 0.2 -0.1 73 1.7 WNW 11 15 6 8 - - 0.0
27/06:00am 4.6 0.9 -0.2 71 1.8 WNW 9 19 5 10 - - 0.0
27/05:30am 4.8 1.0 -0.4 69 2.0 WNW 9 20 5 11 - - 0.0
27/05:00am 5.0 1.6 -0.4 68 2.1 WNW 7 13 4 7 - - 0.0
27/04:30am 5.5 1.4 -0.3 66 2.2 WNW 11 19 6 10 - - 0.0
27/04:00am 5.8 1.7 0.0 66 2.3 WNW 11 17 6 9 - - 0.0
27/03:30am 5.5 2.2 0.1 68 2.1 WNW 7 15 4 8 - - 0.0
27/03:00am 5.9 2.3 0.3 67 2.2 WNW 9 19 5 10 - - 0.0
27/02:30am 5.8 3.5 0.4 68 2.1 NW 2 7 1 4 - - 0.0
27/02:00am 5.8 3.1 0.4 68 2.1 NW 4 7 2 4 - - 0.0
27/01:30am 6.4 3.3 0.1 64 2.5 WNW 6 9 3 5 - - 0.0
27/01:00am 6.7 3.4 0.2 63 2.6 W 7 13 4 7 - - 0.0
27/12:30am 6.5 3.3 0.8 67 2.3 W 7 13 4 7 - - 0.0
27/12:00am 7.8 4.9 1.4 64 2.6 W 6 11 3 6 - - 0.0
 
Date/Time
EST
Temp
°C
App
Temp
°C
Dew
Point
Rel
Hum
%
Delta-T
°C
Wind Press
QNH
hPa
Press
MSL
hPa
Rain
since 9 am
mm
Dir
 
Spd
km/h
Gust
km/h
Spd
kts
Gust
kts
26/11:30pm 8.4 4.2 1.8 63 2.8 W 13 20 7 11 - - 0.0
26/11:00pm 8.8 5.4 1.9 62 2.9 W 9 20 5 11 - - 0.0
26/10:30pm 9.4 5.3 2.5 62 3.0 W 13 28 7 15 - - 0.0
26/10:00pm 10.1 4.7 2.5 59 3.3 W 20 41 11 22 - - 0.0
26/09:30pm 10.8 5.6 3.8 62 3.2 W 20 35 11 19 - - 0.0
26/09:00pm 11.4 6.9 4.2 61 3.3 W 17 28 9 15 - - 0.0
26/08:30pm 11.8 7.8 4.8 62 3.2 W 15 30 8 16 - - 0.0
26/08:00pm 12.3 8.7 4.8 60 3.5 W 13 20 7 11 - - 0.0
26/07:30pm 13.3 8.9 4.7 56 4.0 W 17 30 9 16 - - 0.0
26/07:00pm 13.4 9.3 4.6 55 4.1 WNW 15 28 8 15 - - 0.0
26/06:30pm 13.5 9.4 4.4 54 4.2 W 15 24 8 13 - - 0.0
26/06:00pm 14.2 9.3 4.2 51 4.7 WNW 19 33 10 18 - - 0.0
26/05:30pm 14.3 9.4 4.0 50 4.8 WNW 19 37 10 20 - - 0.0
26/05:00pm 14.7 10.2 4.4 50 4.8 WNW 17 26 9 14 - - 0.0
26/04:30pm 15.4 10.0 4.5 48 5.2 WNW 22 35 12 19 - - 0.0
26/04:00pm 16.3 11.6 5.0 47 5.5 WNW 19 33 10 18 - - 0.0
26/03:30pm 16.6 11.7 4.9 46 5.6 WNW 20 39 11 21 - - 0.0
26/03:00pm 16.7 10.6 4.7 45 5.8 WNW 26 52 14 28 - - 0.0
26/02:30pm 17.4 12.9 6.0 47 5.7 WNW 19 33 10 18 - - 0.0
26/02:00pm 17.3 11.7 5.3 45 5.9 WNW 24 44 13 24 - - 0.0
26/01:30pm 17.6 13.2 6.5 48 5.6 WNW 19 32 10 17 - - 0.0
26/01:00pm 17.3 12.8 6.2 48 5.5 WNW 19 32 10 17 - - 0.0
26/12:30pm 16.8 11.6 5.7 48 5.5 WNW 22 41 12 22 - - 0.0
26/12:00pm 16.9 13.0 7.0 52 5.0 WNW 17 32 9 17 - - 0.0
26/11:30am 15.6 12.1 7.4 58 4.1 WNW 15 28 8 15 - - 0.0
26/11:00am 14.5 10.9 6.6 59 3.9 NW 15 24 8 13 - - 0.0
26/10:30am 14.2 10.6 6.6 60 3.7 WNW 15 28 8 15 - - 0.0
26/10:00am 13.1 9.8 6.5 64 3.2 NW 13 26 7 14 - - 0.0
26/09:30am 11.7 8.7 6.2 69 2.6 NW 11 20 6 11 - - 0.0
26/09:00am 10.5 7.5 5.9 73 2.2 WNW 11 20 6 11 - - -
26/08:30am 10.0 7.0 5.8 75 2.0 NW 11 20 6 11 - - -
26/08:00am 9.3 6.6 5.7 78 1.7 NW 9 19 5 10 - - -
26/07:30am 9.1 6.4 5.5 78 1.7 NW 9 19 5 10 - - -
26/07:00am 9.0 6.3 5.6 79 1.6 NW 9 17 5 9 - - -
26/06:30am 8.9 6.6 5.6 80 1.5 NW 7 15 4 8 - - -
26/06:00am 8.8 6.5 5.7 81 1.4 NW 7 13 4 7 - - -
26/05:30am 8.3 6.1 5.4 82 1.3 NNW 6 9 3 5 - - -
26/05:00am 8.0 6.2 5.3 83 1.2 NW 4 9 2 5 - - -
26/04:30am 8.1 5.9 5.2 82 1.3 NW 6 9 3 5 - - -
26/04:00am 8.2 5.8 5.1 81 1.4 WNW 7 9 4 5 - - -

Other Formats:

Comma delimited format used in spreadsheet applications
http://www.bom.gov.au/fwo/IDN60801/IDN60801.95774.axf

JavaScript Object Notation format (JSON) in row-major order
http://www.bom.gov.au/fwo/IDN60801/IDN60801.95774.json